createdAt,value
2022-08-29T00:00:17.758Z,81.51
2022-08-29T00:02:49.915Z,81.82
2022-08-29T00:05:20.034Z,81.95
2022-08-29T00:07:51.439Z,81.75
2022-08-29T00:10:18.100Z,81.96
2022-08-29T00:12:44.561Z,81.79
2022-08-29T00:15:12.609Z,82.41
2022-08-29T00:17:39.168Z,82.17
2022-08-29T00:20:08.471Z,82.28
2022-08-29T00:22:35.071Z,82.11
2022-08-29T00:25:04.730Z,82.38
2022-08-29T00:27:32.949Z,82.34
2022-08-29T00:30:00.073Z,82.36
2022-08-29T00:32:26.955Z,82.32
2022-08-29T00:34:53.649Z,82.71
2022-08-29T00:37:20.157Z,82.58
2022-08-29T00:39:46.877Z,83.16
2022-08-29T00:42:13.319Z,83.17
2022-08-29T00:44:39.851Z,82.46
2022-08-29T00:47:12.093Z,83.13
2022-08-29T00:49:46.169Z,83.31
2022-08-29T00:52:28.322Z,82.76
2022-08-29T00:54:56.545Z,82.50
2022-08-29T00:57:25.467Z,82.47
2022-08-29T00:59:52.888Z,82.28
2022-08-29T01:02:20.009Z,82.45
2022-08-29T01:04:46.959Z,82.50
2022-08-29T01:07:13.759Z,82.91
2022-08-29T01:09:43.315Z,83.03
2022-08-29T01:12:16.843Z,82.57
2022-08-29T01:14:50.238Z,82.85
2022-08-29T01:17:26.642Z,83.51
2022-08-29T01:19:58.282Z,82.87
2022-08-29T01:22:51.732Z,83.45
2022-08-29T01:25:22.867Z,82.74
2022-08-29T01:27:59.399Z,82.87
2022-08-29T01:30:25.922Z,81.89
2022-08-29T01:32:52.652Z,82.05
2022-08-29T01:35:19.164Z,82.11
2022-08-29T01:37:45.616Z,82.25
2022-08-29T01:40:13.497Z,82.36
2022-08-29T01:42:40.113Z,82.14
2022-08-29T01:45:10.008Z,82.47
2022-08-29T01:47:38.749Z,81.42
2022-08-29T01:50:15.001Z,82.68
2022-08-29T01:52:42.704Z,82.40
2022-08-29T01:55:09.392Z,82.34
2022-08-29T01:57:38.826Z,82.91
2022-08-29T02:00:08.343Z,82.82
2022-08-29T02:02:34.922Z,82.80
2022-08-29T02:05:02.699Z,82.83
2022-08-29T02:07:29.491Z,82.94
2022-08-29T02:09:56.199Z,82.94
2022-08-29T02:12:22.875Z,83.39
2022-08-29T02:14:50.730Z,83.61
2022-08-29T02:17:18.003Z,83.91
2022-08-29T02:19:44.470Z,84.10
2022-08-29T02:22:11.396Z,84.28
2022-08-29T02:24:38.083Z,84.55
2022-08-29T02:27:04.893Z,84.49
2022-08-29T02:29:37.696Z,84.29
2022-08-29T02:32:09.489Z,84.55
2022-08-29T02:34:36.970Z,84.70
2022-08-29T02:37:05.165Z,84.68
2022-08-29T02:39:32.519Z,84.47
2022-08-29T02:41:59.352Z,84.75
2022-08-29T02:44:25.844Z,84.49
2022-08-29T02:46:52.593Z,84.66
2022-08-29T02:49:19.082Z,85.33
2022-08-29T02:51:45.650Z,85.64
2022-08-29T02:54:12.703Z,85.66
2022-08-29T02:56:39.926Z,85.84
2022-08-29T02:59:08.323Z,85.88
2022-08-29T03:01:36.378Z,85.76
2022-08-29T03:04:03.406Z,85.76
2022-08-29T03:06:29.845Z,85.58
2022-08-29T03:08:56.359Z,85.33
2022-08-29T03:11:23.983Z,85.22
2022-08-29T03:13:50.523Z,85.46
2022-08-29T03:16:18.373Z,85.45
2022-08-29T03:18:44.906Z,85.80
2022-08-29T03:21:23.526Z,86.84
2022-08-29T03:23:51.515Z,85.79
2022-08-29T03:26:19.668Z,85.96
2022-08-29T03:28:46.973Z,86.05
2022-08-29T03:31:13.425Z,85.99
2022-08-29T03:33:40.065Z,86.65
2022-08-29T03:36:14.090Z,86.89
2022-08-29T03:38:46.341Z,87.26
2022-08-29T03:41:20.724Z,88.46
2022-08-29T03:43:47.133Z,88.08
2022-08-29T03:46:13.668Z,88.89
2022-08-29T03:48:40.214Z,89.49
2022-08-29T03:51:06.942Z,89.71
2022-08-29T03:53:33.586Z,90.16
2022-08-29T03:56:00.406Z,91.04
2022-08-29T03:58:26.845Z,91.86
2022-08-29T04:00:53.336Z,92.00
2022-08-29T04:03:20.351Z,91.79
2022-08-29T04:05:51.483Z,92.33
2022-08-29T04:08:21.849Z,92.86
2022-08-29T04:10:48.336Z,93.19
2022-08-29T04:13:14.792Z,93.68
2022-08-29T04:15:42.519Z,94.15
2022-08-29T04:18:11.205Z,94.67
2022-08-29T04:20:41.550Z,94.95
2022-08-29T04:23:08.700Z,95.25
2022-08-29T04:25:37.979Z,95.40
2022-08-29T04:28:12.493Z,95.98
2022-08-29T04:30:39.942Z,95.25
2022-08-29T04:33:06.973Z,94.42
2022-08-29T04:35:34.912Z,94.80
2022-08-29T04:38:01.305Z,93.34
2022-08-29T04:40:27.750Z,93.86
2022-08-29T04:42:54.194Z,93.03
2022-08-29T04:45:22.475Z,92.71
2022-08-29T04:47:49.034Z,91.59
2022-08-29T04:50:18.878Z,91.66
2022-08-29T04:52:45.558Z,90.82
2022-08-29T04:55:13.176Z,90.75
2022-08-29T04:57:40.228Z,90.43
2022-08-29T05:00:13.795Z,90.17
2022-08-29T05:02:41.812Z,89.43
2022-08-29T05:05:10.675Z,89.36
2022-08-29T05:07:38.410Z,88.88
2022-08-29T05:10:09.907Z,88.87
2022-08-29T05:12:37.604Z,88.07
2022-08-29T05:15:06.520Z,87.62
2022-08-29T05:17:33.613Z,86.74
2022-08-29T05:20:01.027Z,86.51
2022-08-29T05:22:27.490Z,86.27
2022-08-29T05:24:53.962Z,85.79
2022-08-29T05:27:22.306Z,85.52
2022-08-29T05:29:51.456Z,85.44
2022-08-29T05:32:21.434Z,86.51
2022-08-29T05:34:49.614Z,86.13
2022-08-29T05:37:19.424Z,86.35
2022-08-29T05:39:48.991Z,86.08
2022-08-29T05:42:17.114Z,86.03
2022-08-29T05:44:43.981Z,85.84
2022-08-29T05:47:12.618Z,85.78
2022-08-29T05:49:40.958Z,86.16
2022-08-29T05:52:07.989Z,85.87
2022-08-29T05:54:37.469Z,85.63
2022-08-29T05:57:04.987Z,85.04
2022-08-29T05:59:31.456Z,84.26
2022-08-29T06:01:58.155Z,83.72
2022-08-29T06:04:24.637Z,83.04
2022-08-29T06:06:51.075Z,82.72
2022-08-29T06:09:17.894Z,82.38
2022-08-29T06:11:48.525Z,82.52
2022-08-29T06:14:16.817Z,81.66
2022-08-29T06:16:43.377Z,81.38
2022-08-29T06:19:10.182Z,81.38
2022-08-29T06:21:36.620Z,81.19
2022-08-29T06:24:04.282Z,81.00
2022-08-29T06:26:31.509Z,81.02
2022-08-29T06:28:58.088Z,80.77
2022-08-29T06:31:29.092Z,80.97
2022-08-29T06:33:59.146Z,81.37
2022-08-29T06:36:26.846Z,81.21
2022-08-29T06:38:56.850Z,80.80
2022-08-29T06:41:24.906Z,80.05
2022-08-29T06:43:52.094Z,78.26
2022-08-29T06:46:25.027Z,78.71
2022-08-29T06:48:52.349Z,77.97
2022-08-29T06:51:19.564Z,77.43
2022-08-29T06:53:47.732Z,76.32
2022-08-29T06:56:14.442Z,76.35
2022-08-29T06:58:41.842Z,76.92
2022-08-29T07:01:11.151Z,76.00
2022-08-29T07:03:38.034Z,75.82
2022-08-29T07:06:05.432Z,75.22
2022-08-29T07:08:32.723Z,75.21
2022-08-29T07:10:59.711Z,75.47
2022-08-29T07:13:26.570Z,75.68
2022-08-29T07:15:53.112Z,75.60
2022-08-29T07:18:20.484Z,75.12
2022-08-29T07:20:46.941Z,75.14
2022-08-29T07:23:13.385Z,73.96
2022-08-29T07:25:39.920Z,73.67
2022-08-29T07:28:06.871Z,72.58
2022-08-29T07:30:34.764Z,72.12
2022-08-29T07:33:01.300Z,71.28
2022-08-29T07:35:31.089Z,71.01
2022-08-29T07:38:01.370Z,71.45
2022-08-29T07:40:28.540Z,70.63
2022-08-29T07:42:55.139Z,70.78
2022-08-29T07:45:21.555Z,70.69
2022-08-29T07:47:50.942Z,71.14
2022-08-29T07:50:17.455Z,70.38
2022-08-29T07:52:44.419Z,69.85
2022-08-29T07:55:11.103Z,69.85
2022-08-29T07:57:39.782Z,69.51
2022-08-29T08:00:10.444Z,68.78
2022-08-29T08:02:37.018Z,68.01
2022-08-29T08:05:03.642Z,68.13
2022-08-29T08:07:35.004Z,67.73
2022-08-29T08:10:02.512Z,68.14
2022-08-29T08:12:29.307Z,66.91
2022-08-29T08:14:56.994Z,66.86
2022-08-29T08:17:23.887Z,66.63
2022-08-29T08:19:50.295Z,66.57
2022-08-29T08:22:16.958Z,65.37
2022-08-29T08:24:43.431Z,65.39
2022-08-29T08:27:10.116Z,64.20
2022-08-29T08:29:36.567Z,64.25
2022-08-29T08:32:03.444Z,64.50
2022-08-29T08:34:30.253Z,63.98
2022-08-29T08:36:56.781Z,64.20
2022-08-29T08:39:23.227Z,62.71
2022-08-29T08:41:57.328Z,63.53
2022-08-29T08:44:41.998Z,62.63
2022-08-29T08:47:11.234Z,61.40
2022-08-29T08:49:44.662Z,62.01
2022-08-29T08:52:20.725Z,62.13
2022-08-29T08:54:55.208Z,60.87
2022-08-29T08:57:22.162Z,60.06
2022-08-29T08:59:57.551Z,60.74
2022-08-29T09:03:00.045Z,60.46
2022-08-29T09:05:58.406Z,60.79
2022-08-29T09:08:57.794Z,60.42
2022-08-29T09:11:49.704Z,59.55
2022-08-29T09:14:34.827Z,59.75
2022-08-29T09:17:04.509Z,58.53
2022-08-29T09:19:31.228Z,58.44
2022-08-29T09:22:10.155Z,58.65
2022-08-29T09:24:44.594Z,57.88
2022-08-29T09:27:23.211Z,58.09
2022-08-29T09:29:57.226Z,57.52
2022-08-29T09:32:23.692Z,56.74
2022-08-29T09:35:07.807Z,56.61
2022-08-29T09:37:35.383Z,56.81
2022-08-29T09:40:07.555Z,57.18
2022-08-29T09:42:38.086Z,56.37
2022-08-29T09:45:18.013Z,57.30
2022-08-29T09:47:45.409Z,57.79
2022-08-29T09:50:25.115Z,57.49
2022-08-29T09:52:55.459Z,56.49
2022-08-29T09:55:29.131Z,56.41
2022-08-29T09:58:02.418Z,55.81
2022-08-29T10:00:33.953Z,55.84
2022-08-29T10:03:02.811Z,55.62
2022-08-29T10:05:45.977Z,56.30
2022-08-29T10:08:35.294Z,55.53
2022-08-29T10:11:06.516Z,56.04
2022-08-29T10:13:46.047Z,56.46
2022-08-29T10:16:27.897Z,56.28
2022-08-29T10:19:03.107Z,56.10
2022-08-29T10:21:58.917Z,56.71
2022-08-29T10:24:59.130Z,55.61
2022-08-29T10:27:40.760Z,55.27
2022-08-29T10:30:07.546Z,54.82
2022-08-29T10:33:14.414Z,54.97
2022-08-29T10:35:55.784Z,54.60
2022-08-29T10:38:40.141Z,54.51
2022-08-29T10:41:50.507Z,55.25
2022-08-29T10:44:41.406Z,54.70
2022-08-29T10:47:39.391Z,55.18
2022-08-29T10:50:43.778Z,55.47
2022-08-29T10:53:27.746Z,55.41
2022-08-29T10:56:05.870Z,55.60
2022-08-29T10:59:12.225Z,55.54
2022-08-29T11:01:47.952Z,55.28
2022-08-29T11:04:22.210Z,54.19
2022-08-29T11:06:48.643Z,53.19
2022-08-29T11:09:21.514Z,53.28
2022-08-29T11:12:17.488Z,52.75
2022-08-29T11:15:02.833Z,51.97
2022-08-29T11:17:34.764Z,51.96
2022-08-29T11:20:17.911Z,51.06
2022-08-29T11:23:05.351Z,52.36
2022-08-29T11:25:35.738Z,50.11
2022-08-29T11:28:08.379Z,49.88
2022-08-29T11:30:48.345Z,50.40
2022-08-29T11:33:39.868Z,50.06
2022-08-29T11:36:07.129Z,49.15
2022-08-29T11:38:45.668Z,49.50
2022-08-29T11:41:33.815Z,50.08
2022-08-29T11:44:33.418Z,49.94
2022-08-29T11:47:00.395Z,49.62
2022-08-29T11:49:37.057Z,49.74
2022-08-29T11:52:10.958Z,50.58
2022-08-29T11:54:38.947Z,49.86
2022-08-29T11:57:05.306Z,49.65
2022-08-29T11:59:44.593Z,51.22
2022-08-29T12:02:31.046Z,51.31
2022-08-29T12:05:03.444Z,51.81
2022-08-29T12:07:38.201Z,51.88
2022-08-29T12:10:26.420Z,51.98
2022-08-29T12:12:56.535Z,51.34
2022-08-29T12:15:32.324Z,51.51
2022-08-29T12:18:23.292Z,51.74
2022-08-29T12:20:52.213Z,51.81
2022-08-29T12:23:25.232Z,52.38
2022-08-29T12:26:15.855Z,52.24
2022-08-29T12:28:56.309Z,52.25
2022-08-29T12:32:02.212Z,52.74
2022-08-29T12:35:05.249Z,53.42
2022-08-29T12:38:09.033Z,53.94
2022-08-29T12:41:03.505Z,53.71
2022-08-29T12:43:34.987Z,53.73
2022-08-29T12:46:10.090Z,54.05
2022-08-29T12:48:57.620Z,53.93
2022-08-29T12:51:42.919Z,54.29
2022-08-29T12:54:12.301Z,54.05
2022-08-29T12:56:47.262Z,54.27
2022-08-29T12:59:19.582Z,55.29
2022-08-29T13:01:56.128Z,55.01
2022-08-29T13:04:31.942Z,54.90
2022-08-29T13:07:04.364Z,55.28
2022-08-29T13:09:43.098Z,54.68
2022-08-29T13:12:24.813Z,54.96
2022-08-29T13:15:08.243Z,54.83
2022-08-29T13:17:39.742Z,54.33
2022-08-29T13:20:40.358Z,54.90
2022-08-29T13:23:12.518Z,55.46
2022-08-29T13:26:06.459Z,54.97
2022-08-29T13:28:45.978Z,55.30
2022-08-29T13:31:15.157Z,55.47
2022-08-29T13:33:50.622Z,54.43
2022-08-29T13:36:41.146Z,54.60
2022-08-29T13:39:18.042Z,54.59
2022-08-29T13:41:53.859Z,54.50
2022-08-29T13:44:24.089Z,54.83
2022-08-29T13:46:52.707Z,54.96
2022-08-29T13:49:25.959Z,55.08
2022-08-29T13:51:52.510Z,55.37
2022-08-29T13:54:19.407Z,55.75
2022-08-29T13:56:58.160Z,55.90
2022-08-29T13:59:27.943Z,56.10
2022-08-29T14:02:12.939Z,55.36
2022-08-29T14:04:41.019Z,54.97
2022-08-29T14:07:12.048Z,55.51
2022-08-29T14:09:41.882Z,54.76
2022-08-29T14:12:08.955Z,53.81
2022-08-29T14:14:35.488Z,53.40
2022-08-29T14:17:02.040Z,52.81
2022-08-29T14:19:29.878Z,52.74
2022-08-29T14:22:00.317Z,51.99
2022-08-29T14:24:29.161Z,52.37
2022-08-29T14:27:01.999Z,51.53
2022-08-29T14:29:30.853Z,50.39
2022-08-29T14:31:58.194Z,50.70
2022-08-29T14:34:24.819Z,49.87
2022-08-29T14:36:57.003Z,49.83
2022-08-29T14:39:26.245Z,49.75
2022-08-29T14:41:52.923Z,50.19
2022-08-29T14:44:20.476Z,50.56
2022-08-29T14:46:47.537Z,50.32
2022-08-29T14:49:14.163Z,50.08
2022-08-29T14:51:41.972Z,50.30
2022-08-29T14:54:08.702Z,49.85
2022-08-29T14:56:48.204Z,51.26
2022-08-29T14:59:14.985Z,49.44
2022-08-29T15:01:41.855Z,49.77
2022-08-29T15:04:08.712Z,49.88
2022-08-29T15:06:35.305Z,50.52
2022-08-29T15:09:01.852Z,50.70
2022-08-29T15:11:28.394Z,49.34
2022-08-29T15:13:54.873Z,49.68
2022-08-29T15:16:21.488Z,49.69
2022-08-29T15:21:34.601Z,50.53
2022-08-29T15:24:01.155Z,50.61
2022-08-29T15:26:27.670Z,50.31
2022-08-29T15:28:54.865Z,50.88
2022-08-29T15:31:22.438Z,51.53
2022-08-29T15:33:49.722Z,51.66
2022-08-29T15:36:16.303Z,51.56
2022-08-29T15:38:43.086Z,51.71
2022-08-29T15:41:09.525Z,51.33
2022-08-29T15:43:36.056Z,52.10
2022-08-29T15:46:02.628Z,51.86
2022-08-29T15:48:29.174Z,52.60
2022-08-29T15:50:55.607Z,52.19
2022-08-29T15:53:22.244Z,52.04
2022-08-29T15:55:48.683Z,53.05
2022-08-29T15:58:15.240Z,52.26
2022-08-29T16:00:41.983Z,52.29
2022-08-29T16:03:08.663Z,52.46
2022-08-29T16:05:36.647Z,52.75
2022-08-29T16:08:03.356Z,53.40
2022-08-29T16:10:30.694Z,53.27
2022-08-29T16:12:57.647Z,53.05
2022-08-29T16:15:24.519Z,53.50
2022-08-29T16:17:51.437Z,52.94
2022-08-29T16:20:18.854Z,53.12
2022-08-29T16:22:45.313Z,53.32
2022-08-29T16:25:13.116Z,53.80
2022-08-29T16:27:40.061Z,52.86
2022-08-29T16:30:07.183Z,52.74
2022-08-29T16:32:33.862Z,52.70
2022-08-29T16:35:00.348Z,52.27
2022-08-29T16:37:27.282Z,51.95
2022-08-29T16:39:54.456Z,52.40
2022-08-29T16:42:21.705Z,51.98
2022-08-29T16:44:48.485Z,52.36
2022-08-29T16:47:15.262Z,50.48
2022-08-29T16:49:41.736Z,50.38
2022-08-29T16:52:08.414Z,51.27
2022-08-29T16:54:34.967Z,50.53
2022-08-29T16:57:01.461Z,50.64
2022-08-29T16:59:27.915Z,50.18
2022-08-29T17:01:55.224Z,49.91
2022-08-29T17:04:30.106Z,50.82
2022-08-29T17:06:57.185Z,50.29
2022-08-29T17:09:25.069Z,49.94
2022-08-29T17:11:53.775Z,49.43
2022-08-29T17:14:24.866Z,49.29
2022-08-29T17:16:53.068Z,49.81
2022-08-29T17:19:21.010Z,50.41
2022-08-29T17:21:48.233Z,51.95
2022-08-29T17:24:15.950Z,52.08
2022-08-29T17:26:45.231Z,52.52
2022-08-29T17:29:12.678Z,52.63
2022-08-29T17:31:39.256Z,53.45
2022-08-29T17:34:08.088Z,53.62
2022-08-29T17:36:36.757Z,54.62
2022-08-29T17:39:04.878Z,54.45
2022-08-29T17:41:31.450Z,54.22
2022-08-29T17:43:59.274Z,55.02
2022-08-29T17:46:25.822Z,53.70
2022-08-29T17:48:52.576Z,54.46
2022-08-29T17:51:19.046Z,54.15
2022-08-29T17:53:46.382Z,54.82
2022-08-29T17:56:19.835Z,55.45
2022-08-29T17:58:47.416Z,56.27
2022-08-29T18:01:16.420Z,56.07
2022-08-29T18:03:44.490Z,56.23
2022-08-29T18:06:12.359Z,56.66
2022-08-29T18:08:41.277Z,57.18
2022-08-29T18:11:11.920Z,57.58
2022-08-29T18:13:38.662Z,58.25
2022-08-29T18:16:05.183Z,58.40
2022-08-29T18:18:32.561Z,58.69
2022-08-29T18:20:59.117Z,58.57
2022-08-29T18:23:25.707Z,58.81
2022-08-29T18:25:52.163Z,58.98
2022-08-29T18:28:19.525Z,59.73
2022-08-29T18:30:46.030Z,59.67
2022-08-29T18:33:13.000Z,60.17
2022-08-29T18:35:39.487Z,60.49
2022-08-29T18:38:07.706Z,61.15
2022-08-29T18:40:39.315Z,61.18
2022-08-29T18:43:06.950Z,61.66
2022-08-29T18:45:34.622Z,62.13
2022-08-29T18:48:02.150Z,62.54
2022-08-29T18:50:34.567Z,63.27
2022-08-29T18:53:12.902Z,62.91
2022-08-29T18:55:50.495Z,63.67
2022-08-29T18:58:23.682Z,64.01
2022-08-29T19:00:51.073Z,64.31
2022-08-29T19:03:21.385Z,64.62
2022-08-29T19:05:49.388Z,62.78
2022-08-29T19:08:18.553Z,64.82
2022-08-29T19:10:47.318Z,65.76
2022-08-29T19:13:15.701Z,66.04
2022-08-29T19:15:42.461Z,66.03
2022-08-29T19:18:10.538Z,66.11
2022-08-29T19:20:55.587Z,66.14
2022-08-29T19:23:22.601Z,65.73
2022-08-29T19:25:49.943Z,65.96
2022-08-29T19:28:18.178Z,65.87
2022-08-29T19:30:45.042Z,65.61
2022-08-29T19:33:15.213Z,65.63
2022-08-29T19:35:41.780Z,65.28
2022-08-29T19:38:08.441Z,65.65
2022-08-29T19:43:27.720Z,66.02
2022-08-29T19:45:54.731Z,66.17
2022-08-29T19:48:22.156Z,66.27
2022-08-29T19:50:48.721Z,66.43
2022-08-29T19:53:26.614Z,66.97
2022-08-29T19:55:56.696Z,67.13
2022-08-29T19:58:31.875Z,67.28
2022-08-29T20:01:03.290Z,67.76
2022-08-29T20:03:30.569Z,68.23
2022-08-29T20:05:57.229Z,68.20
2022-08-29T20:08:23.901Z,68.71
2022-08-29T20:10:51.229Z,68.79
2022-08-29T20:13:18.504Z,69.55
2022-08-29T20:15:44.943Z,69.98
2022-08-29T20:18:11.565Z,70.32
2022-08-29T20:20:39.895Z,70.55
2022-08-29T20:23:07.229Z,71.08
2022-08-29T20:25:34.938Z,71.08
2022-08-29T20:28:02.160Z,71.53
2022-08-29T20:30:31.726Z,71.75
2022-08-29T20:32:58.174Z,72.14
2022-08-29T20:35:43.910Z,72.64
2022-08-29T20:38:10.887Z,73.08
2022-08-29T20:40:39.465Z,73.35
2022-08-29T20:43:06.917Z,72.86
2022-08-29T20:45:33.832Z,74.10
2022-08-29T20:48:01.736Z,74.38
2022-08-29T20:52:55.603Z,75.01
2022-08-29T20:55:22.935Z,74.80
2022-08-29T20:57:49.398Z,74.79
2022-08-29T21:00:16.230Z,74.80
2022-08-29T21:03:01.019Z,74.91
2022-08-29T21:05:42.263Z,74.97
2022-08-29T21:08:15.137Z,75.36
2022-08-29T21:10:43.572Z,75.37
2022-08-29T21:13:10.676Z,75.57
2022-08-29T21:15:38.992Z,75.97
2022-08-29T21:18:06.251Z,76.31
2022-08-29T21:20:36.302Z,76.76
2022-08-29T21:23:08.193Z,76.56
2022-08-29T21:25:35.530Z,76.47
2022-08-29T21:28:02.475Z,76.29
2022-08-29T21:30:33.843Z,76.20
2022-08-29T21:33:00.534Z,76.13
2022-08-29T21:35:26.972Z,76.61
2022-08-29T21:37:54.177Z,76.43
2022-08-29T21:40:25.765Z,77.03
2022-08-29T21:42:54.749Z,77.09
2022-08-29T21:45:22.718Z,77.44
2022-08-29T21:47:54.561Z,77.98
2022-08-29T21:50:22.800Z,78.04
2022-08-29T21:52:49.569Z,78.10
2022-08-29T21:55:18.175Z,78.48
2022-08-29T21:57:51.893Z,78.41
2022-08-29T22:00:27.347Z,78.62
2022-08-29T22:02:54.572Z,78.02
2022-08-29T22:05:21.396Z,77.87
2022-08-29T22:07:47.904Z,77.56
2022-08-29T22:10:20.187Z,77.46
2022-08-29T22:12:47.245Z,77.19
2022-08-29T22:15:33.189Z,76.99
2022-08-29T22:17:59.938Z,76.67
2022-08-29T22:20:27.246Z,76.41
2022-08-29T22:22:53.854Z,76.33
2022-08-29T22:25:21.039Z,76.05
2022-08-29T22:27:47.835Z,75.93
2022-08-29T22:30:15.585Z,75.55
2022-08-29T22:32:42.986Z,75.12
2022-08-29T22:35:19.535Z,74.86
2022-08-29T22:37:46.031Z,74.63
2022-08-29T22:40:16.541Z,74.64
2022-08-29T22:42:44.488Z,74.54
2022-08-29T22:45:13.707Z,74.75
2022-08-29T22:47:42.476Z,74.48
2022-08-29T22:50:13.575Z,74.86
2022-08-29T22:52:40.141Z,74.71
2022-08-29T22:55:08.740Z,74.50
2022-08-29T22:57:35.195Z,74.97
2022-08-29T23:00:04.040Z,75.18
2022-08-29T23:02:30.499Z,75.85
2022-08-29T23:04:57.021Z,76.19
2022-08-29T23:07:23.647Z,76.31
2022-08-29T23:09:50.689Z,76.86
2022-08-29T23:12:17.650Z,76.92
2022-08-29T23:14:48.777Z,77.06
2022-08-29T23:17:16.637Z,76.95
2022-08-29T23:19:43.792Z,76.83
2022-08-29T23:22:12.686Z,76.54
2022-08-29T23:24:41.342Z,76.18
2022-08-29T23:27:20.419Z,75.79
2022-08-29T23:29:50.412Z,75.64
2022-08-29T23:32:17.238Z,74.93
2022-08-29T23:34:44.016Z,74.88
2022-08-29T23:37:10.546Z,74.68
2022-08-29T23:39:36.995Z,74.51
2022-08-29T23:42:04.013Z,74.40
2022-08-29T23:44:30.528Z,74.26
2022-08-29T23:46:57.312Z,74.04
2022-08-29T23:49:23.965Z,74.40
2022-08-29T23:51:50.925Z,74.10
2022-08-29T23:54:18.272Z,73.96
2022-08-29T23:56:45.015Z,73.83
2022-08-29T23:59:31.447Z,73.65
